Weather at Prati Vecchi D'Aguscello Airport

Public forecast

Using degrees Celsius for public forecast. Weather courtesy of forecast.io.

Closest aviation weather report (METAR) to Prati Vecchi D'Aguscello Airport

Report is more than 6 hours old.

Closest report is Ferrara Airport, 2.8 nm (5.2 km) WNW. Retrieved 2021/01/27 17:55 UTC (7 hours ago):

LIPF 271755Z /////KT CAVOK 02/01 Q1016

Closest aviation forecast (TAF) to Prati Vecchi D'Aguscello Airport

Closest forecast is Bologna Guglielmo Marconi Airport, 22.3 nm (41.3 km) SW. Retrieved 2021-01-28 00:00 UTC (1 hour ago):

TAF LIPE 272300Z 2800/2824 VRB05KT 9999 FEW040